Atoka, TN

5:12 PM CDT on April 27, 2017 (GMT -0500)
KC4WTI Weather - Sterling Ridge | | Change Station
Active Advisory: Flood Advisory Active Notice: Flood Advisory

Elev 390 ft 35.42 °N, 89.76 °W | Updated 2 seconds ago

Clear
Clear
68.3 °F
Feels Like 68.3 °F
N
1.6
Wind Variable Wind from South
Gusts 3.5 mph

Today
High -- | Low -- °F
--% Chance of Precip.
Yesterday
High -- | Low -- °F
Precip. -- in
Pressure 29.81 in
Visibility 10.0 miles
Clouds Few 25000 ft
Dew Point 51 °F
Humidity 54%
Rainfall 0.04 in
Snow Depth Not available.
6:11 AM 7:42 PM
Waxing Crescent, 3% visible
METAR KNQA 272150Z 19004KT 10SM FEW250 19/09 A2981
Pressure 29.81 in
Visibility 10.0 miles
Clouds Few 25000 ft
Dew Point 51 °F
Humidity 54%
Rainfall 0.04 in
Snow Depth Not available.
6:11 AM 7:42 PM
Waxing Crescent, 3% visible
METAR KNQA 272150Z 19004KT 10SM FEW250 19/09 A2981

Get Your Daily Forecast Email!

Thanks for signing up!

Be on the lookout for a verification email in your inbox.

You'll start receiving severe weather alerts in your inbox..

×

10-Day Weather Forecast

Almanac

Astronomy

Apr. 27, 2017 Rise Set
Actual Time
Civil Twilight
Nautical Twilight
Astronomical Twilight
Moon
Length of Visible Light
Length of Day
Tomorrow will be .
, % of the Moon is Illuminated

Today's Extremes

State Highs State Lows

Community

WunderPhotos

WunderBlog® & News

Nearby

Air Quality

  Air Quality AQ Index Pollutant
Not available.

Snow Depth

Station Depth Elevation

Earthquake Activity

City Distance Mag. Time & Date
Minimum magnitude displayed is 2.5.

Coastal Water Temperatures

Place Temperature

Stations

Nearby Weather Stations

Station Location Temp. Windchill Dew Point Humidity Wind Precip. Elev Updated Type
                   

Watches & Warnings

Flood Advisory
Issued: 10:20 AM CDT Apr. 27, 2017 – National Weather Service

The National Weather Service in Memphis TN has issued a
* flood advisory for
the Mississippi River at Osceola
* from Thursday April 27 until Monday may 1.
* At 10 am Thursday the stage was 21.0 feet.
* Flood stage is 28.0 feet.
* Forecast... the river will rise to near 25.5 feet Monday may 01.
* At 24.0 feet... in Tennessee, fields are flooding west of the
northwest tip of cruther lake. Mississippi County, Arkansas Road
442 is flooded at Mill Bayou just inside the levee.


Lat... Lon 3582 8996 3582 8956 3560 8979 3539 8995
      3539 9025


Mm